Time;durP1;ratioP1;P1;durP2;ratioP2;P2;SDS_P1;SDS_P2;PMS_P1;PMS_P2;Temp;Humidity;BMP_temperature;BMP_pressure;BME280_temperature;BME280_humidity;BME280_pressure;Samples;Min_cycle;Max_cycle;Signal;HPM_P1;HPM_P2
2021/11/05 12:12:56;;;;;;;21.90;15.07;;;;;;;;;;5134753;22;20071;-63
2021/11/05 12:15:23;;;;;;;20.27;13.43;;;;;;;;;;5049169;28;20032;-63
2021/11/05 12:17:54;;;;;;;26.80;16.60;;;;;;;;;;5053875;28;20017;-65
2021/11/05 12:20:37;;;;;;;25.25;17.63;;;;;;;;;;5035761;28;20025;-64
2021/11/05 12:23:10;;;;;;;22.45;16.67;;;;;;;;;;5054038;28;20028;-63
2021/11/05 12:25:47;;;;;;;24.02;16.85;;;;;;;;;;5035744;28;20103;-63
2021/11/05 12:28:15;;;;;;;24.15;18.48;;;;;;;;;;5053670;28;20025;-63
2021/11/05 12:30:41;;;;;;;24.88;17.38;;;;;;;;;;5035647;28;20061;-63
2021/11/05 12:33:36;;;;;;;19.02;13.75;;;;;;;;;;5053906;28;20091;-63
2021/11/05 12:36:06;;;;;;;20.95;14.15;;;;;;;;;;4953141;29;20523;-63
2021/11/05 12:38:52;;;;;;;14.60;10.50;;;;;;;;;;4948642;29;20035;-64
2021/11/05 12:41:19;;;;;;;30.30;18.35;;;;;;;;;;4930583;29;20032;-65
2021/11/05 12:43:46;;;;;;;24.02;16.27;;;;;;;;;;4933152;29;20032;-64
2021/11/05 12:46:17;;;;;;;14.98;10.57;;;;;;;;;;4932888;29;20506;-64
2021/11/05 12:48:47;;;;;;;16.38;11.00;;;;;;;;;;4933471;29;20043;-64
2021/11/05 12:51:18;;;;;;;20.00;12.45;;;;;;;;;;4933869;29;20031;-63
2021/11/05 12:53:44;;;;;;;26.10;18.00;;;;;;;;;;4933641;29;20040;-63
2021/11/05 12:56:17;;;;;;;13.02;10.57;;;;;;;;;;4933805;29;20622;-64
2021/11/05 12:58:43;;;;;;;12.20;8.82;;;;;;;;;;4933487;29;20503;-63
2021/11/05 13:01:13;;;;;;;20.00;11.90;;;;;;;;;;4933718;29;20051;-64
2021/11/05 13:03:39;;;;;;;14.95;10.95;;;;;;;;;;4933702;29;20023;-64
2021/11/05 13:06:06;;;;;;;18.98;12.18;;;;;;;;;;4933651;29;20040;-64
2021/11/05 13:08:40;;;;;;;23.20;14.35;;;;;;;;;;4938854;29;20408;-62
2021/11/05 13:11:08;;;;;;;17.23;12.65;;;;;;;;;;4952325;29;20038;-62
2021/11/05 13:13:35;;;;;;;18.92;13.52;;;;;;;;;;5050126;28;20548;-62
2021/11/05 13:16:14;;;;;;;23.48;14.45;;;;;;;;;;5052906;28;20017;-62
2021/11/05 13:18:41;;;;;;;19.58;14.90;;;;;;;;;;5052660;28;20104;-63
2021/11/05 13:21:17;;;;;;;16.75;11.93;;;;;;;;;;5052728;28;20021;-63
2021/11/05 13:23:43;;;;;;;20.15;14.50;;;;;;;;;;5034919;28;20115;-63
2021/11/05 13:26:09;;;;;;;14.80;12.13;;;;;;;;;;5052502;28;20049;-66
2021/11/05 13:28:36;;;;;;;15.27;11.20;;;;;;;;;;5052758;28;20035;-65
2021/11/05 13:31:03;;;;;;;14.27;10.45;;;;;;;;;;5047224;28;20108;-63
2021/11/05 13:33:30;;;;;;;12.02;9.50;;;;;;;;;;5052510;28;20017;-64
2021/11/05 13:36:07;;;;;;;11.70;9.45;;;;;;;;;;5052098;28;20021;-63
2021/11/05 13:38:39;;;;;;;15.55;11.30;;;;;;;;;;5052772;28;20488;-64
2021/11/05 13:41:09;;;;;;;14.77;11.18;;;;;;;;;;5046766;28;20049;-64
2021/11/05 13:43:40;;;;;;;19.80;12.45;;;;;;;;;;5032709;28;20032;-63
2021/11/05 13:46:17;;;;;;;19.30;14.67;;;;;;;;;;5032530;28;20072;-69
2021/11/05 13:48:47;;;;;;;24.38;16.30;;;;;;;;;;5032632;28;20274;-65
2021/11/05 13:51:21;;;;;;;22.38;14.60;;;;;;;;;;5032721;28;20478;-64
2021/11/05 13:53:59;;;;;;;28.88;18.20;;;;;;;;;;5014976;28;20381;-63
2021/11/05 13:56:25;;;;;;;24.98;18.17;;;;;;;;;;5031514;28;20021;-68
2021/11/05 13:58:53;;;;;;;27.25;20.25;;;;;;;;;;5033479;28;20053;-67
2021/11/05 14:01:20;;;;;;;22.50;15.05;;;;;;;;;;5056448;28;20098;-65
2021/11/05 14:03:54;;;;;;;26.30;17.58;;;;;;;;;;5056430;28;20075;-68
2021/11/05 14:06:20;;;;;;;32.03;21.25;;;;;;;;;;5037870;28;20028;-68
2021/11/05 14:08:51;;;;;;;37.35;25.45;;;;;;;;;;5036050;28;20137;-64
2021/11/05 14:11:37;;;;;;;36.13;25.60;;;;;;;;;;5036301;28;20064;-67
2021/11/05 14:14:08;;;;;;;33.50;23.42;;;;;;;;;;5039105;28;20049;-66
2021/11/05 14:16:47;;;;;;;34.15;22.42;;;;;;;;;;5056280;28;20025;-65
2021/11/05 14:19:15;;;;;;;36.35;22.33;;;;;;;;;;5037761;28;20032;-66
2021/11/05 14:21:41;;;;;;;29.52;19.15;;;;;;;;;;5056042;28;20094;-66
2021/11/05 14:24:12;;;;;;;35.33;20.50;;;;;;;;;;5056145;28;20059;-66
2021/11/05 14:26:39;;;;;;;24.17;16.60;;;;;;;;;;5037779;28;20037;-66
2021/11/05 14:29:06;;;;;;;30.80;19.55;;;;;;;;;;5037925;28;20045;-66
2021/11/05 14:31:51;;;;;;;42.90;27.00;;;;;;;;;;5055835;28;20091;-65
2021/11/05 14:34:17;;;;;;;36.58;21.73;;;;;;;;;;5055948;28;20037;-65
2021/11/05 14:36:43;;;;;;;43.22;25.23;;;;;;;;;;5055937;28;20021;-66
2021/11/05 14:39:10;;;;;;;38.05;26.05;;;;;;;;;;5055555;28;20543;-67
2021/11/05 14:41:36;;;;;;;49.33;29.42;;;;;;;;;;5055784;28;20017;-65
2021/11/05 14:44:03;;;;;;;42.22;25.90;;;;;;;;;;5055693;28;20062;-64
2021/11/05 14:46:45;;;;;;;41.60;26.52;;;;;;;;;;5055594;28;20054;-63
2021/11/05 14:49:13;;;;;;;34.38;23.23;;;;;;;;;;5055556;28;20033;-64
2021/11/05 14:51:40;;;;;;;28.08;19.63;;;;;;;;;;5037612;28;20393;-66
2021/11/05 14:54:07;;;;;;;26.58;19.67;;;;;;;;;;5037612;28;20033;-62
2021/11/05 14:56:34;;;;;;;36.75;22.13;;;;;;;;;;5038551;28;20079;-70
2021/11/05 14:59:01;;;;;;;28.52;19.40;;;;;;;;;;5035511;28;20029;-64
2021/11/05 15:01:29;;;;;;;31.15;21.60;;;;;;;;;;5035207;28;20026;-65
2021/11/05 15:03:56;;;;;;;27.25;18.73;;;;;;;;;;5017525;28;20021;-70
2021/11/05 15:06:25;;;;;;;35.13;21.42;;;;;;;;;;5035378;28;20064;-64
2021/11/05 15:08:51;;;;;;;29.67;19.98;;;;;;;;;;5035160;28;20053;-67
2021/11/05 15:11:19;;;;;;;29.10;20.23;;;;;;;;;;5034930;28;20033;-67
2021/11/05 15:13:45;;;;;;;25.88;19.10;;;;;;;;;;5035221;28;20057;-65
2021/11/05 15:16:13;;;;;;;31.13;19.98;;;;;;;;;;5017485;28;20026;-64
2021/11/05 15:18:40;;;;;;;33.22;19.60;;;;;;;;;;5017300;28;20116;-68
2021/11/05 15:21:07;;;;;;;29.88;19.08;;;;;;;;;;5035045;28;20445;-66
2021/11/05 15:23:34;;;;;;;25.58;18.00;;;;;;;;;;5034236;28;20098;-68
2021/11/05 15:26:01;;;;;;;32.08;19.60;;;;;;;;;;5046359;28;20029;-66
2021/11/05 15:28:28;;;;;;;30.23;19.17;;;;;;;;;;5054853;28;20029;-70
2021/11/05 15:30:55;;;;;;;31.65;18.52;;;;;;;;;;5054860;28;20029;-70
2021/11/05 15:33:23;;;;;;;30.50;18.90;;;;;;;;;;5036761;28;20381;-67
2021/11/05 15:35:49;;;;;;;34.03;19.40;;;;;;;;;;5036688;28;20454;-67
2021/11/05 15:38:16;;;;;;;34.55;21.55;;;;;;;;;;5036785;28;20083;-70
2021/11/05 15:40:44;;;;;;;31.45;19.10;;;;;;;;;;5054591;28;20036;-68
2021/11/05 15:43:11;;;;;;;37.65;22.45;;;;;;;;;;5054392;28;20110;-64
2021/11/05 15:45:37;;;;;;;38.75;21.42;;;;;;;;;;5054413;28;20017;-62
2021/11/05 15:48:04;;;;;;;52.47;34.42;;;;;;;;;;5036568;28;20163;-64
2021/11/05 15:50:31;;;;;;;21.15;14.93;;;;;;;;;;5054056;28;20389;-66
2021/11/05 15:52:58;;;;;;;30.20;19.08;;;;;;;;;;5054515;28;20052;-66
2021/11/05 15:55:25;;;;;;;32.35;20.35;;;;;;;;;;5054391;28;20151;-67
2021/11/05 15:57:51;;;;;;;36.90;22.27;;;;;;;;;;5054655;28;20084;-65
2021/11/05 16:00:20;;;;;;;45.90;27.45;;;;;;;;;;5054385;28;20025;-66
2021/11/05 16:02:47;;;;;;;44.72;25.77;;;;;;;;;;5054384;28;20025;-68
2021/11/05 16:05:14;;;;;;;39.38;26.08;;;;;;;;;;5054522;28;20017;-66
2021/11/05 16:07:41;;;;;;;31.13;23.75;;;;;;;;;;5053769;28;20028;-66
2021/11/05 16:10:08;;;;;;;32.72;22.75;;;;;;;;;;5053562;28;20025;-66
2021/11/05 16:12:34;;;;;;;31.92;21.23;;;;;;;;;;5035092;28;20493;-67
2021/11/05 16:15:04;;;;;;;22.60;16.55;;;;;;;;;;5053480;28;20104;-68
2021/11/05 16:17:30;;;;;;;23.98;15.45;;;;;;;;;;5035746;28;20048;-66
2021/11/05 16:19:57;;;;;;;28.27;18.15;;;;;;;;;;5053958;28;20025;-67
2021/11/05 16:22:23;;;;;;;24.98;17.08;;;;;;;;;;5035083;28;20021;-65
2021/11/05 16:24:49;;;;;;;22.15;16.27;;;;;;;;;;5053872;28;20513;-64
2021/11/05 16:27:15;;;;;;;28.38;19.98;;;;;;;;;;5053685;28;20487;-64
2021/11/05 16:29:43;;;;;;;33.05;20.88;;;;;;;;;;5035851;28;20033;-67
2021/11/05 16:32:09;;;;;;;33.92;22.50;;;;;;;;;;5035751;28;20112;-65
2021/11/05 16:34:36;;;;;;;34.65;21.38;;;;;;;;;;5053689;28;20167;-66
2021/11/05 16:37:02;;;;;;;38.28;23.38;;;;;;;;;;5053607;28;20037;-65
2021/11/05 16:39:28;;;;;;;40.13;26.83;;;;;;;;;;5053509;28;20021;-64
2021/11/05 16:41:55;;;;;;;36.40;23.73;;;;;;;;;;5053442;28;20025;-64
2021/11/05 16:44:24;;;;;;;61.42;34.63;;;;;;;;;;5035117;28;20060;-64
2021/11/05 16:46:50;;;;;;;52.03;28.73;;;;;;;;;;5053525;28;20492;-66
2021/11/05 16:49:17;;;;;;;46.75;28.48;;;;;;;;;;5053543;28;20424;-65
2021/11/05 16:51:44;;;;;;;57.95;34.83;;;;;;;;;;5053098;28;20021;-64
2021/11/05 16:54:11;;;;;;;44.20;28.15;;;;;;;;;;5050951;28;20039;-65
2021/11/05 16:56:38;;;;;;;46.60;29.65;;;;;;;;;;5053132;28;20385;-65
2021/11/05 16:59:04;;;;;;;35.20;22.40;;;;;;;;;;5053506;28;20040;-62
2021/11/05 17:01:31;;;;;;;36.90;23.70;;;;;;;;;;5053677;28;20407;-64
2021/11/05 17:03:57;;;;;;;53.28;28.73;;;;;;;;;;5035389;28;20466;-63
2021/11/05 17:06:24;;;;;;;44.28;25.20;;;;;;;;;;5052988;28;20075;-65
2021/11/05 17:08:51;;;;;;;42.03;26.58;;;;;;;;;;5035381;28;20411;-63
2021/11/05 17:11:17;;;;;;;45.70;28.58;;;;;;;;;;5053301;28;20115;-64
2021/11/05 17:13:48;;;;;;;41.08;25.73;;;;;;;;;;5052701;28;20126;-63
2021/11/05 17:16:19;;;;;;;37.15;25.00;;;;;;;;;;5034969;28;20059;-64
2021/11/05 17:18:45;;;;;;;;;;;;;;;;;;5053623;28;20032;-64
2021/11/05 17:21:15;;;;;;;45.80;25.75;;;;;;;;;;5053121;28;20345;-65
2021/11/05 17:23:41;;;;;;;41.97;24.65;;;;;;;;;;5053116;28;20054;-64
2021/11/05 17:26:08;;;;;;;34.88;20.95;;;;;;;;;;5035158;28;20052;-64
2021/11/05 17:28:36;;;;;;;36.63;23.25;;;;;;;;;;5035130;28;20477;-64
2021/11/05 17:31:04;;;;;;;44.88;26.63;;;;;;;;;;5052987;28;20460;-65
2021/11/05 17:33:31;;;;;;;31.67;20.20;;;;;;;;;;5052909;28;20047;-64
2021/11/05 17:35:57;;;;;;;29.98;19.15;;;;;;;;;;5052936;28;20029;-63
2021/11/05 17:38:23;;;;;;;28.50;19.85;;;;;;;;;;5035021;28;20025;-64
2021/11/05 17:40:49;;;;;;;26.98;17.17;;;;;;;;;;5034958;28;20379;-63
2021/11/05 17:43:15;;;;;;;33.20;21.23;;;;;;;;;;5053088;28;20116;-64
2021/11/05 17:45:42;;;;;;;37.20;22.25;;;;;;;;;;5052857;28;20033;-65
2021/11/05 17:48:09;;;;;;;30.83;18.63;;;;;;;;;;5052959;28;20025;-63
2021/11/05 17:50:36;;;;;;;30.17;19.25;;;;;;;;;;5052788;28;20381;-65
2021/11/05 17:53:02;;;;;;;32.42;21.05;;;;;;;;;;5052835;28;20082;-63
2021/11/05 17:55:29;;;;;;;35.10;21.65;;;;;;;;;;5052776;28;20017;-64
2021/11/05 17:57:56;;;;;;;33.28;21.08;;;;;;;;;;5034891;28;20057;-64
2021/11/05 18:00:25;;;;;;;32.22;20.50;;;;;;;;;;5052796;28;20104;-64
2021/11/05 18:02:51;;;;;;;29.85;20.13;;;;;;;;;;5034803;28;20469;-67
2021/11/05 18:05:17;;;;;;;34.50;22.77;;;;;;;;;;5052915;28;20064;-63
2021/11/05 18:07:44;;;;;;;50.17;24.20;;;;;;;;;;5052625;28;20033;-63
2021/11/05 18:10:10;;;;;;;38.15;23.70;;;;;;;;;;5052401;28;20483;-63
2021/11/05 18:12:38;;;;;;;35.78;23.33;;;;;;;;;;5052468;28;20493;-64
2021/11/05 18:15:06;;;;;;;45.17;27.48;;;;;;;;;;5052311;28;20366;-65
2021/11/05 18:17:32;;;;;;;47.30;28.02;;;;;;;;;;5052869;28;20116;-63
2021/11/05 18:19:58;;;;;;;41.42;24.70;;;;;;;;;;5052763;28;20025;-64
2021/11/05 18:22:25;;;;;;;42.13;24.95;;;;;;;;;;5052197;28;20500;-64
2021/11/05 18:24:51;;;;;;;35.75;22.90;;;;;;;;;;5052515;28;20025;-65
2021/11/05 18:27:18;;;;;;;40.13;25.05;;;;;;;;;;5052378;28;20036;-65
2021/11/05 18:29:45;;;;;;;39.85;26.40;;;;;;;;;;5052495;28;20029;-64
2021/11/05 18:32:11;;;;;;;41.17;23.98;;;;;;;;;;5052418;28;20059;-63
2021/11/05 18:34:38;;;;;;;34.40;23.65;;;;;;;;;;5052306;28;20439;-64
2021/11/05 18:37:05;;;;;;;40.65;25.17;;;;;;;;;;5052627;28;20465;-65
2021/11/05 18:39:31;;;;;;;39.83;24.42;;;;;;;;;;5034784;28;20460;-66
2021/11/05 18:42:02;;;;;;;34.42;21.95;;;;;;;;;;5052351;28;20024;-63
2021/11/05 18:44:29;;;;;;;34.90;23.17;;;;;;;;;;5052680;28;20017;-63
2021/11/05 18:46:55;;;;;;;42.15;25.00;;;;;;;;;;5055860;28;20021;-65
2021/11/05 18:49:22;;;;;;;43.55;26.98;;;;;;;;;;5055949;28;20028;-63
2021/11/05 18:51:48;;;;;;;39.40;26.42;;;;;;;;;;5056058;28;20028;-65
2021/11/05 18:54:16;;;;;;;40.38;24.52;;;;;;;;;;5037882;28;20031;-65
2021/11/05 18:56:47;;;;;;;47.67;26.00;;;;;;;;;;5037845;28;20052;-67
2021/11/05 18:59:17;;;;;;;44.50;26.83;;;;;;;;;;5055827;28;20373;-61
2021/11/05 19:01:44;;;;;;;43.78;27.50;;;;;;;;;;5037805;28;20020;-64
2021/11/05 19:04:12;;;;;;;54.55;30.50;;;;;;;;;;5055624;28;20508;-64
2021/11/05 19:06:42;;;;;;;47.72;28.80;;;;;;;;;;5055584;28;20028;-64
2021/11/05 19:09:09;;;;;;;48.50;28.45;;;;;;;;;;5055512;28;20029;-65
2021/11/05 19:11:36;;;;;;;49.10;28.83;;;;;;;;;;5055476;28;20029;-64
2021/11/05 19:14:03;;;;;;;49.72;29.70;;;;;;;;;;5037031;28;20065;-63
2021/11/05 19:16:29;;;;;;;49.22;29.75;;;;;;;;;;5037498;28;20067;-65
2021/11/05 19:18:55;;;;;;;52.42;31.35;;;;;;;;;;5055362;28;20112;-65
2021/11/05 19:21:23;;;;;;;45.30;27.92;;;;;;;;;;5055277;28;20021;-63
2021/11/05 19:23:49;;;;;;;48.10;28.50;;;;;;;;;;5055254;28;20155;-65
2021/11/05 19:26:15;;;;;;;42.25;26.48;;;;;;;;;;5055193;28;20025;-63
2021/11/05 19:28:42;;;;;;;44.00;26.52;;;;;;;;;;5054980;28;20025;-66
2021/11/05 19:31:10;;;;;;;42.40;27.25;;;;;;;;;;5055172;28;20113;-64
2021/11/05 19:33:37;;;;;;;42.90;25.75;;;;;;;;;;5055347;28;20053;-65
2021/11/05 19:36:03;;;;;;;37.08;24.42;;;;;;;;;;5037159;28;20024;-65
2021/11/05 19:38:30;;;;;;;40.20;23.75;;;;;;;;;;5054977;28;20025;-65
2021/11/05 19:40:56;;;;;;;36.05;22.88;;;;;;;;;;5037104;28;20021;-66
2021/11/05 19:43:22;;;;;;;33.45;20.90;;;;;;;;;;5036860;28;20025;-65
2021/11/05 19:45:49;;;;;;;35.28;22.23;;;;;;;;;;5036939;28;20384;-66
2021/11/05 19:48:16;;;;;;;38.28;22.75;;;;;;;;;;5054166;28;20424;-66
2021/11/05 19:50:42;;;;;;;39.05;21.80;;;;;;;;;;5036928;28;20079;-64
2021/11/05 19:53:08;;;;;;;34.50;21.98;;;;;;;;;;5036735;28;20071;-65
2021/11/05 19:55:39;;;;;;;29.58;19.60;;;;;;;;;;5054465;28;20102;-64
2021/11/05 19:58:06;;;;;;;30.30;19.15;;;;;;;;;;5053919;28;20044;-66
2021/11/05 20:00:33;;;;;;;35.78;21.50;;;;;;;;;;5054634;28;20024;-64
2021/11/05 20:03:00;;;;;;;33.85;20.45;;;;;;;;;;5054559;28;20021;-63
2021/11/05 20:05:27;;;;;;;29.90;20.17;;;;;;;;;;5036546;28;20067;-63
2021/11/05 20:07:56;;;;;;;31.88;18.55;;;;;;;;;;5054315;28;20116;-64
2021/11/05 20:10:22;;;;;;;32.53;20.85;;;;;;;;;;5054420;28;20040;-66
2021/11/05 20:12:49;;;;;;;37.90;23.88;;;;;;;;;;5053975;28;20512;-66
2021/11/05 20:15:15;;;;;;;34.85;22.85;;;;;;;;;;5036346;28;20093;-65
2021/11/05 20:17:42;;;;;;;44.03;24.48;;;;;;;;;;5054240;28;20029;-66
2021/11/05 20:20:09;;;;;;;36.17;23.30;;;;;;;;;;5054180;28;20520;-66
2021/11/05 20:22:41;;;;;;;36.35;22.58;;;;;;;;;;5036162;28;20052;-66
2021/11/05 20:25:08;;;;;;;32.45;21.50;;;;;;;;;;5036252;28;20378;-65
2021/11/05 20:27:35;;;;;;;33.17;21.85;;;;;;;;;;5053882;28;20037;-66
2021/11/05 20:30:01;;;;;;;32.25;21.90;;;;;;;;;;5054013;28;20386;-66
2021/11/05 20:32:28;;;;;;;35.03;22.20;;;;;;;;;;5054177;28;20021;-68
2021/11/05 20:34:56;;;;;;;39.60;24.02;;;;;;;;;;5053907;28;20025;-64
2021/11/05 20:37:22;;;;;;;36.13;22.40;;;;;;;;;;5035707;28;20029;-64
2021/11/05 20:39:49;;;;;;;41.17;24.90;;;;;;;;;;5054059;28;20048;-64
2021/11/05 20:42:16;;;;;;;35.83;21.88;;;;;;;;;;5035866;28;20025;-69
2021/11/05 20:44:42;;;;;;;36.20;23.02;;;;;;;;;;5035741;28;20484;-66
2021/11/05 20:47:08;;;;;;;36.75;22.52;;;;;;;;;;5053609;28;20021;-67
2021/11/05 20:49:36;;;;;;;39.05;24.80;;;;;;;;;;5053724;28;20032;-65
2021/11/05 20:52:03;;;;;;;40.85;24.65;;;;;;;;;;5053600;28;20029;-67
2021/11/05 20:54:30;;;;;;;40.45;24.98;;;;;;;;;;5053559;28;20025;-67
2021/11/05 20:56:56;;;;;;;37.88;23.55;;;;;;;;;;5053522;28;20025;-69
2021/11/05 20:59:22;;;;;;;40.03;25.00;;;;;;;;;;5033356;28;20116;-67
2021/11/05 21:01:48;;;;;;;35.88;23.15;;;;;;;;;;5021989;28;20029;-68
2021/11/05 21:04:14;;;;;;;36.30;23.77;;;;;;;;;;5053318;28;20025;-66
2021/11/05 21:06:41;;;;;;;42.22;24.77;;;;;;;;;;5053301;28;20040;-68
2021/11/05 21:09:08;;;;;;;39.08;24.27;;;;;;;;;;5034980;28;20037;-65
2021/11/05 21:11:35;;;;;;;38.90;25.48;;;;;;;;;;5035267;28;20064;-65
2021/11/05 21:14:01;;;;;;;36.33;22.90;;;;;;;;;;5052717;28;20041;-67
2021/11/05 21:16:27;;;;;;;40.83;23.35;;;;;;;;;;5053437;28;20024;-64
2021/11/05 21:18:53;;;;;;;38.20;24.15;;;;;;;;;;5052860;28;20108;-66
2021/11/05 21:21:19;;;;;;;35.42;22.73;;;;;;;;;;5035091;28;20499;-65
2021/11/05 21:23:46;;;;;;;36.47;22.13;;;;;;;;;;5035165;28;20469;-65
2021/11/05 21:26:13;;;;;;;34.40;21.33;;;;;;;;;;5052943;28;20503;-67
2021/11/05 21:28:39;;;;;;;34.17;20.77;;;;;;;;;;5052933;28;20033;-66
2021/11/05 21:31:07;;;;;;;39.03;22.75;;;;;;;;;;5035046;28;20029;-67
2021/11/05 21:33:41;;;;;;;31.88;21.33;;;;;;;;;;5052922;28;20024;-68
2021/11/05 21:36:09;;;;;;;38.88;23.67;;;;;;;;;;5052853;28;20028;-68
2021/11/05 21:38:35;;;;;;;34.67;22.05;;;;;;;;;;5052622;28;20043;-67
2021/11/05 21:41:02;;;;;;;33.60;22.00;;;;;;;;;;5052951;28;20484;-67
2021/11/05 21:43:28;;;;;;;35.00;20.83;;;;;;;;;;5039747;28;20037;-66
2021/11/05 21:45:54;;;;;;;33.53;20.65;;;;;;;;;;5052199;28;20025;-67
2021/11/05 21:48:21;;;;;;;42.03;24.08;;;;;;;;;;5052198;28;20508;-68
2021/11/05 21:50:48;;;;;;;37.10;22.25;;;;;;;;;;5052716;28;20028;-68
2021/11/05 21:53:15;;;;;;;43.13;24.17;;;;;;;;;;5034670;28;20083;-66
2021/11/05 21:55:42;;;;;;;40.58;24.13;;;;;;;;;;5052682;28;20466;-64
2021/11/05 21:58:08;;;;;;;43.53;25.02;;;;;;;;;;5034634;28;20358;-66
2021/11/05 22:00:34;;;;;;;45.47;24.63;;;;;;;;;;5034774;28;20056;-66
2021/11/05 22:03:01;;;;;;;37.55;23.35;;;;;;;;;;5052827;28;20098;-66
2021/11/05 22:05:30;;;;;;;37.35;22.98;;;;;;;;;;5052572;28;20029;-66
2021/11/05 22:07:56;;;;;;;37.47;22.08;;;;;;;;;;5052161;28;20393;-66
2021/11/05 22:10:22;;;;;;;37.53;22.45;;;;;;;;;;5052208;28;20037;-65
2021/11/05 22:12:49;;;;;;;33.38;20.73;;;;;;;;;;5052061;28;20436;-67
2021/11/05 22:15:16;;;;;;;30.33;19.95;;;;;;;;;;5052543;28;20033;-67
2021/11/05 22:17:43;;;;;;;33.72;18.00;;;;;;;;;;5052432;28;20021;-67
2021/11/05 22:20:11;;;;;;;38.55;21.65;;;;;;;;;;5053719;28;20351;-64
2021/11/05 22:22:38;;;;;;;44.33;24.52;;;;;;;;;;5038474;28;20477;-68
2021/11/05 22:25:05;;;;;;;39.53;22.17;;;;;;;;;;5038312;28;20116;-63
2021/11/05 22:27:40;;;;;;;36.17;22.63;;;;;;;;;;5056263;28;20445;-65
2021/11/05 22:30:08;;;;;;;40.25;22.55;;;;;;;;;;5056127;28;20116;-64
2021/11/05 22:32:35;;;;;;;36.83;22.27;;;;;;;;;;5056232;28;20111;-63
2021/11/05 22:35:02;;;;;;;38.22;22.95;;;;;;;;;;5038237;28;20400;-66
2021/11/05 22:37:30;;;;;;;37.78;23.42;;;;;;;;;;5056075;28;20029;-63
2021/11/05 22:39:56;;;;;;;38.60;22.80;;;;;;;;;;5056030;28;20022;-64
2021/11/05 22:42:23;;;;;;;35.72;21.25;;;;;;;;;;5055908;28;20029;-65
2021/11/05 22:44:49;;;;;;;38.28;22.08;;;;;;;;;;5055917;28;20030;-63
2021/11/05 22:47:16;;;;;;;38.50;22.52;;;;;;;;;;5055518;28;20052;-64
2021/11/05 22:49:42;;;;;;;36.40;20.48;;;;;;;;;;5055917;28;20032;-65
2021/11/05 22:52:09;;;;;;;41.22;23.10;;;;;;;;;;5037814;28;20055;-66
2021/11/05 22:54:38;;;;;;;44.15;24.80;;;;;;;;;;5037836;28;20036;-65
2021/11/05 22:57:04;;;;;;;39.10;22.67;;;;;;;;;;5055750;28;20025;-65
2021/11/05 22:59:30;;;;;;;39.35;23.50;;;;;;;;;;5055622;28;20110;-67
2021/11/05 23:01:57;;;;;;;41.05;22.17;;;;;;;;;;5037716;28;20453;-64
2021/11/05 23:04:23;;;;;;;35.00;22.13;;;;;;;;;;5055455;28;20036;-68
2021/11/05 23:06:49;;;;;;;37.60;22.38;;;;;;;;;;5055490;28;20071;-66
2021/11/05 23:09:15;;;;;;;36.65;22.45;;;;;;;;;;5055426;28;20564;-64
2021/11/05 23:11:44;;;;;;;40.67;23.65;;;;;;;;;;5055182;28;20078;-65
2021/11/05 23:14:12;;;;;;;38.60;22.65;;;;;;;;;;5054886;28;20049;-64
2021/11/05 23:16:38;;;;;;;36.03;22.05;;;;;;;;;;5055305;28;20067;-66
2021/11/05 23:19:04;;;;;;;39.47;22.73;;;;;;;;;;5055040;28;20102;-67
2021/11/05 23:21:31;;;;;;;49.03;26.17;;;;;;;;;;5055330;28;20037;-66
2021/11/05 23:23:58;;;;;;;47.15;25.48;;;;;;;;;;5037067;28;20025;-67
2021/11/05 23:26:24;;;;;;;41.92;24.98;;;;;;;;;;5055071;28;20028;-64
2021/11/05 23:28:51;;;;;;;42.58;25.10;;;;;;;;;;5055124;28;20459;-67
2021/11/05 23:31:19;;;;;;;41.08;24.95;;;;;;;;;;5054962;28;20040;-64
2021/11/05 23:33:47;;;;;;;39.28;22.13;;;;;;;;;;5054987;28;20029;-67
2021/11/05 23:36:13;;;;;;;38.78;21.88;;;;;;;;;;5054628;28;20036;-65
2021/11/05 23:38:40;;;;;;;37.88;22.88;;;;;;;;;;5037034;28;20369;-67
2021/11/05 23:41:06;;;;;;;39.60;20.95;;;;;;;;;;5054857;28;20067;-67
2021/11/05 23:43:33;;;;;;;32.92;20.42;;;;;;;;;;5054790;28;20033;-66
2021/11/05 23:46:00;;;;;;;33.72;19.85;;;;;;;;;;5036775;28;20101;-67
2021/11/05 23:48:27;;;;;;;36.85;20.10;;;;;;;;;;5054783;28;20091;-66
2021/11/05 23:50:53;;;;;;;38.83;21.60;;;;;;;;;;5036864;28;20068;-63
2021/11/05 23:53:19;;;;;;;43.17;23.40;;;;;;;;;;5054660;28;20158;-67
2021/11/05 23:55:46;;;;;;;34.50;22.08;;;;;;;;;;5037017;28;20492;-64
2021/11/05 23:58:12;;;;;;;37.00;21.50;;;;;;;;;;5036450;28;20028;-66
